sensor_id;sensor_type;location;lat;lon;timestamp;P1;durP1;ratioP1;P2;durP2;ratioP2
12050;SDS011;6086;43.546;26.474;2022-09-09T00:00:45;2.17;;;1.60;;
12050;SDS011;6086;43.546;26.474;2022-09-09T00:03:17;2.50;;;2.30;;
12050;SDS011;6086;43.546;26.474;2022-09-09T00:05:48;2.30;;;2.10;;
12050;SDS011;6086;43.546;26.474;2022-09-09T00:08:25;2.17;;;2.07;;
12050;SDS011;6086;43.546;26.474;2022-09-09T00:11:04;2.13;;;1.93;;
12050;SDS011;6086;43.546;26.474;2022-09-09T00:13:34;2.43;;;2.13;;
12050;SDS011;6086;43.546;26.474;2022-09-09T00:16:08;1.97;;;1.67;;
12050;SDS011;6086;43.546;26.474;2022-09-09T00:18:46;3.30;;;2.07;;
12050;SDS011;6086;43.546;26.474;2022-09-09T00:21:21;4.30;;;2.07;;
12050;SDS011;6086;43.546;26.474;2022-09-09T00:23:54;3.77;;;2.00;;
12050;SDS011;6086;43.546;26.474;2022-09-09T00:26:22;2.00;;;1.83;;
12050;SDS011;6086;43.546;26.474;2022-09-09T00:29:03;2.20;;;2.00;;
12050;SDS011;6086;43.546;26.474;2022-09-09T00:31:36;1.80;;;1.70;;
12050;SDS011;6086;43.546;26.474;2022-09-09T00:34:04;1.93;;;1.83;;
12050;SDS011;6086;43.546;26.474;2022-09-09T00:36:38;2.50;;;2.30;;
12050;SDS011;6086;43.546;26.474;2022-09-09T00:39:05;2.77;;;2.20;;
12050;SDS011;6086;43.546;26.474;2022-09-09T00:41:43;2.27;;;2.07;;
12050;SDS011;6086;43.546;26.474;2022-09-09T00:44:28;2.00;;;1.90;;
12050;SDS011;6086;43.546;26.474;2022-09-09T00:47:04;2.50;;;2.30;;
12050;SDS011;6086;43.546;26.474;2022-09-09T00:49:46;2.33;;;2.00;;
12050;SDS011;6086;43.546;26.474;2022-09-09T00:52:26;2.73;;;2.30;;
12050;SDS011;6086;43.546;26.474;2022-09-09T00:58:21;2.63;;;1.90;;
12050;SDS011;6086;43.546;26.474;2022-09-09T01:00:50;2.43;;;2.23;;
12050;SDS011;6086;43.546;26.474;2022-09-09T01:03:22;3.83;;;2.20;;
12050;SDS011;6086;43.546;26.474;2022-09-09T01:06:00;3.40;;;1.90;;
12050;SDS011;6086;43.546;26.474;2022-09-09T01:08:52;2.00;;;1.90;;
12050;SDS011;6086;43.546;26.474;2022-09-09T01:11:32;2.00;;;1.77;;
12050;SDS011;6086;43.546;26.474;2022-09-09T01:14:10;1.70;;;1.60;;
12050;SDS011;6086;43.546;26.474;2022-09-09T01:16:44;2.63;;;2.20;;
12050;SDS011;6086;43.546;26.474;2022-09-09T01:19:15;2.10;;;2.00;;
12050;SDS011;6086;43.546;26.474;2022-09-09T01:21:53;2.20;;;2.00;;
12050;SDS011;6086;43.546;26.474;2022-09-09T01:27:33;2.70;;;2.13;;
12050;SDS011;6086;43.546;26.474;2022-09-09T01:30:04;2.30;;;2.10;;
12050;SDS011;6086;43.546;26.474;2022-09-09T01:32:39;2.73;;;2.00;;
12050;SDS011;6086;43.546;26.474;2022-09-09T01:35:09;2.27;;;2.17;;
12050;SDS011;6086;43.546;26.474;2022-09-09T01:37:39;2.00;;;1.90;;
12050;SDS011;6086;43.546;26.474;2022-09-09T01:40:07;3.10;;;2.00;;
12050;SDS011;6086;43.546;26.474;2022-09-09T01:42:35;2.00;;;1.90;;
12050;SDS011;6086;43.546;26.474;2022-09-09T01:45:03;2.30;;;2.10;;
12050;SDS011;6086;43.546;26.474;2022-09-09T01:47:31;2.40;;;2.00;;
12050;SDS011;6086;43.546;26.474;2022-09-09T01:49:58;2.40;;;2.20;;
12050;SDS011;6086;43.546;26.474;2022-09-09T01:52:27;2.30;;;2.10;;
12050;SDS011;6086;43.546;26.474;2022-09-09T01:54:54;2.00;;;1.90;;
12050;SDS011;6086;43.546;26.474;2022-09-09T01:57:21;2.03;;;1.93;;
12050;SDS011;6086;43.546;26.474;2022-09-09T01:59:56;2.73;;;2.40;;
12050;SDS011;6086;43.546;26.474;2022-09-09T02:02:32;1.90;;;1.80;;
12050;SDS011;6086;43.546;26.474;2022-09-09T02:05:05;4.90;;;2.50;;
12050;SDS011;6086;43.546;26.474;2022-09-09T02:07:42;2.60;;;2.40;;
12050;SDS011;6086;43.546;26.474;2022-09-09T02:10:15;2.40;;;2.20;;
12050;SDS011;6086;43.546;26.474;2022-09-09T02:12:47;2.63;;;2.43;;
12050;SDS011;6086;43.546;26.474;2022-09-09T02:15:20;2.30;;;2.03;;
12050;SDS011;6086;43.546;26.474;2022-09-09T02:17:50;2.90;;;2.10;;
12050;SDS011;6086;43.546;26.474;2022-09-09T02:20:19;2.43;;;2.23;;
12050;SDS011;6086;43.546;26.474;2022-09-09T02:22:49;2.30;;;2.10;;
12050;SDS011;6086;43.546;26.474;2022-09-09T02:25:18;2.33;;;2.10;;
12050;SDS011;6086;43.546;26.474;2022-09-09T02:27:47;2.30;;;2.10;;
12050;SDS011;6086;43.546;26.474;2022-09-09T02:30:19;2.30;;;2.00;;
12050;SDS011;6086;43.546;26.474;2022-09-09T02:32:46;2.80;;;1.83;;
12050;SDS011;6086;43.546;26.474;2022-09-09T02:35:17;2.50;;;2.30;;
12050;SDS011;6086;43.546;26.474;2022-09-09T02:37:47;3.73;;;2.20;;
12050;SDS011;6086;43.546;26.474;2022-09-09T02:40:16;2.27;;;2.07;;
12050;SDS011;6086;43.546;26.474;2022-09-09T02:42:44;2.47;;;2.23;;
12050;SDS011;6086;43.546;26.474;2022-09-09T02:45:13;2.37;;;1.83;;
12050;SDS011;6086;43.546;26.474;2022-09-09T02:47:45;3.00;;;2.13;;
12050;SDS011;6086;43.546;26.474;2022-09-09T02:50:19;2.07;;;1.87;;
12050;SDS011;6086;43.546;26.474;2022-09-09T02:52:55;2.63;;;2.07;;
12050;SDS011;6086;43.546;26.474;2022-09-09T02:55:36;2.20;;;2.00;;
12050;SDS011;6086;43.546;26.474;2022-09-09T02:58:08;5.67;;;2.10;;
12050;SDS011;6086;43.546;26.474;2022-09-09T03:00:38;2.40;;;2.17;;
12050;SDS011;6086;43.546;26.474;2022-09-09T03:03:07;2.20;;;2.10;;
12050;SDS011;6086;43.546;26.474;2022-09-09T03:05:41;3.87;;;1.90;;
12050;SDS011;6086;43.546;26.474;2022-09-09T03:08:08;1.87;;;1.77;;
12050;SDS011;6086;43.546;26.474;2022-09-09T03:10:36;3.43;;;1.80;;
12050;SDS011;6086;43.546;26.474;2022-09-09T03:13:03;1.80;;;1.70;;
12050;SDS011;6086;43.546;26.474;2022-09-09T03:15:30;2.10;;;1.90;;
12050;SDS011;6086;43.546;26.474;2022-09-09T03:17:57;2.10;;;1.90;;
12050;SDS011;6086;43.546;26.474;2022-09-09T03:20:27;2.23;;;2.03;;
12050;SDS011;6086;43.546;26.474;2022-09-09T03:22:55;1.80;;;1.70;;
12050;SDS011;6086;43.546;26.474;2022-09-09T03:25:23;2.00;;;1.90;;
12050;SDS011;6086;43.546;26.474;2022-09-09T03:27:51;3.00;;;1.87;;
12050;SDS011;6086;43.546;26.474;2022-09-09T03:30:19;2.43;;;1.80;;
12050;SDS011;6086;43.546;26.474;2022-09-09T03:32:46;2.43;;;2.03;;
12050;SDS011;6086;43.546;26.474;2022-09-09T03:35:13;4.03;;;2.10;;
12050;SDS011;6086;43.546;26.474;2022-09-09T03:37:42;3.03;;;2.30;;
12050;SDS011;6086;43.546;26.474;2022-09-09T03:40:10;3.57;;;1.83;;
12050;SDS011;6086;43.546;26.474;2022-09-09T03:42:37;2.10;;;1.73;;
12050;SDS011;6086;43.546;26.474;2022-09-09T03:45:06;2.30;;;1.90;;
12050;SDS011;6086;43.546;26.474;2022-09-09T03:47:34;1.87;;;1.77;;
12050;SDS011;6086;43.546;26.474;2022-09-09T03:50:01;2.13;;;1.80;;
12050;SDS011;6086;43.546;26.474;2022-09-09T03:52:34;3.47;;;2.10;;
12050;SDS011;6086;43.546;26.474;2022-09-09T03:55:03;4.60;;;2.00;;
12050;SDS011;6086;43.546;26.474;2022-09-09T03:57:31;2.97;;;2.10;;
12050;SDS011;6086;43.546;26.474;2022-09-09T04:00:00;2.20;;;2.10;;
12050;SDS011;6086;43.546;26.474;2022-09-09T04:02:28;3.73;;;2.10;;
12050;SDS011;6086;43.546;26.474;2022-09-09T04:04:55;2.60;;;1.80;;
12050;SDS011;6086;43.546;26.474;2022-09-09T04:07:21;2.20;;;2.00;;
12050;SDS011;6086;43.546;26.474;2022-09-09T04:09:48;2.10;;;1.83;;
12050;SDS011;6086;43.546;26.474;2022-09-09T04:12:17;2.37;;;2.03;;
12050;SDS011;6086;43.546;26.474;2022-09-09T04:14:44;3.73;;;1.97;;
12050;SDS011;6086;43.546;26.474;2022-09-09T04:17:11;3.90;;;1.80;;
12050;SDS011;6086;43.546;26.474;2022-09-09T04:19:38;2.40;;;2.10;;
12050;SDS011;6086;43.546;26.474;2022-09-09T04:22:05;2.30;;;2.10;;
12050;SDS011;6086;43.546;26.474;2022-09-09T04:24:32;4.97;;;2.33;;
12050;SDS011;6086;43.546;26.474;2022-09-09T04:27:00;2.10;;;2.00;;
12050;SDS011;6086;43.546;26.474;2022-09-09T04:29:28;2.00;;;1.90;;
12050;SDS011;6086;43.546;26.474;2022-09-09T04:31:55;3.77;;;1.77;;
12050;SDS011;6086;43.546;26.474;2022-09-09T04:34:22;2.53;;;2.00;;
12050;SDS011;6086;43.546;26.474;2022-09-09T04:36:50;4.93;;;2.20;;
12050;SDS011;6086;43.546;26.474;2022-09-09T04:39:17;2.37;;;2.17;;
12050;SDS011;6086;43.546;26.474;2022-09-09T04:41:44;2.03;;;1.93;;
12050;SDS011;6086;43.546;26.474;2022-09-09T04:44:12;2.77;;;2.03;;
12050;SDS011;6086;43.546;26.474;2022-09-09T04:46:40;4.77;;;2.10;;
12050;SDS011;6086;43.546;26.474;2022-09-09T04:49:07;4.53;;;2.50;;
12050;SDS011;6086;43.546;26.474;2022-09-09T04:51:34;3.00;;;2.70;;
12050;SDS011;6086;43.546;26.474;2022-09-09T04:54:01;3.17;;;2.10;;
12050;SDS011;6086;43.546;26.474;2022-09-09T04:56:28;2.07;;;1.87;;
12050;SDS011;6086;43.546;26.474;2022-09-09T04:58:55;4.50;;;1.93;;
12050;SDS011;6086;43.546;26.474;2022-09-09T05:01:22;3.23;;;2.10;;
12050;SDS011;6086;43.546;26.474;2022-09-09T05:03:51;2.77;;;2.23;;
12050;SDS011;6086;43.546;26.474;2022-09-09T05:06:19;3.90;;;2.20;;
12050;SDS011;6086;43.546;26.474;2022-09-09T05:08:46;7.57;;;2.73;;
12050;SDS011;6086;43.546;26.474;2022-09-09T05:11:18;3.00;;;1.60;;
12050;SDS011;6086;43.546;26.474;2022-09-09T05:13:47;1.90;;;1.70;;
12050;SDS011;6086;43.546;26.474;2022-09-09T05:16:15;4.10;;;1.93;;
12050;SDS011;6086;43.546;26.474;2022-09-09T05:18:43;2.10;;;1.90;;
12050;SDS011;6086;43.546;26.474;2022-09-09T05:21:13;4.17;;;2.07;;
12050;SDS011;6086;43.546;26.474;2022-09-09T05:23:41;2.50;;;1.70;;
12050;SDS011;6086;43.546;26.474;2022-09-09T05:26:09;1.97;;;1.87;;
12050;SDS011;6086;43.546;26.474;2022-09-09T05:28:39;4.43;;;2.00;;
12050;SDS011;6086;43.546;26.474;2022-09-09T05:31:06;9.47;;;2.33;;
12050;SDS011;6086;43.546;26.474;2022-09-09T05:33:36;2.53;;;2.03;;
12050;SDS011;6086;43.546;26.474;2022-09-09T05:36:06;9.00;;;1.97;;
12050;SDS011;6086;43.546;26.474;2022-09-09T05:38:37;3.40;;;2.00;;
12050;SDS011;6086;43.546;26.474;2022-09-09T05:41:04;2.87;;;1.70;;
12050;SDS011;6086;43.546;26.474;2022-09-09T05:43:31;1.80;;;1.70;;
12050;SDS011;6086;43.546;26.474;2022-09-09T05:46:01;2.17;;;1.97;;
12050;SDS011;6086;43.546;26.474;2022-09-09T05:48:30;1.80;;;1.70;;
12050;SDS011;6086;43.546;26.474;2022-09-09T05:50:59;3.50;;;2.93;;
12050;SDS011;6086;43.546;26.474;2022-09-09T05:53:27;1.90;;;1.80;;
12050;SDS011;6086;43.546;26.474;2022-09-09T05:56:01;3.43;;;1.80;;
12050;SDS011;6086;43.546;26.474;2022-09-09T05:58:30;2.90;;;1.80;;
12050;SDS011;6086;43.546;26.474;2022-09-09T06:01:01;2.80;;;1.93;;
12050;SDS011;6086;43.546;26.474;2022-09-09T06:03:29;2.87;;;1.70;;
12050;SDS011;6086;43.546;26.474;2022-09-09T06:05:59;2.13;;;1.73;;
12050;SDS011;6086;43.546;26.474;2022-09-09T06:08:30;1.73;;;1.63;;
12050;SDS011;6086;43.546;26.474;2022-09-09T06:11:01;3.77;;;2.03;;
12050;SDS011;6086;43.546;26.474;2022-09-09T06:13:29;3.40;;;1.87;;
12050;SDS011;6086;43.546;26.474;2022-09-09T06:15:56;2.30;;;1.90;;
12050;SDS011;6086;43.546;26.474;2022-09-09T06:18:23;4.33;;;1.70;;
12050;SDS011;6086;43.546;26.474;2022-09-09T06:20:55;2.37;;;1.77;;
12050;SDS011;6086;43.546;26.474;2022-09-09T06:23:23;2.87;;;1.77;;
12050;SDS011;6086;43.546;26.474;2022-09-09T06:25:50;2.10;;;1.83;;
12050;SDS011;6086;43.546;26.474;2022-09-09T06:28:19;1.70;;;1.60;;
12050;SDS011;6086;43.546;26.474;2022-09-09T06:30:46;3.27;;;2.50;;
12050;SDS011;6086;43.546;26.474;2022-09-09T06:33:12;2.73;;;2.53;;
12050;SDS011;6086;43.546;26.474;2022-09-09T06:35:40;2.53;;;2.00;;
12050;SDS011;6086;43.546;26.474;2022-09-09T06:38:07;2.20;;;1.93;;
12050;SDS011;6086;43.546;26.474;2022-09-09T06:40:34;2.90;;;2.00;;
12050;SDS011;6086;43.546;26.474;2022-09-09T06:43:02;1.80;;;1.70;;
12050;SDS011;6086;43.546;26.474;2022-09-09T06:45:53;2.33;;;2.17;;
12050;SDS011;6086;43.546;26.474;2022-09-09T06:48:21;2.47;;;2.00;;
12050;SDS011;6086;43.546;26.474;2022-09-09T06:50:48;2.10;;;2.00;;
12050;SDS011;6086;43.546;26.474;2022-09-09T06:53:17;2.17;;;1.97;;
12050;SDS011;6086;43.546;26.474;2022-09-09T06:55:45;1.97;;;1.80;;
12050;SDS011;6086;43.546;26.474;2022-09-09T06:58:13;3.73;;;1.87;;
12050;SDS011;6086;43.546;26.474;2022-09-09T07:00:39;2.10;;;1.93;;
12050;SDS011;6086;43.546;26.474;2022-09-09T07:03:08;5.27;;;2.20;;
12050;SDS011;6086;43.546;26.474;2022-09-09T07:05:36;5.07;;;2.10;;
12050;SDS011;6086;43.546;26.474;2022-09-09T07:08:03;3.60;;;2.22;;
12050;SDS011;6086;43.546;26.474;2022-09-09T07:10:30;3.47;;;2.23;;
12050;SDS011;6086;43.546;26.474;2022-09-09T07:12:59;3.27;;;2.00;;
12050;SDS011;6086;43.546;26.474;2022-09-09T07:15:27;4.10;;;2.13;;
12050;SDS011;6086;43.546;26.474;2022-09-09T07:17:55;5.47;;;2.43;;
12050;SDS011;6086;43.546;26.474;2022-09-09T07:20:29;2.17;;;1.90;;
12050;SDS011;6086;43.546;26.474;2022-09-09T07:22:56;2.60;;;1.90;;
12050;SDS011;6086;43.546;26.474;2022-09-09T07:25:23;1.87;;;1.77;;
12050;SDS011;6086;43.546;26.474;2022-09-09T07:27:51;2.30;;;2.03;;
12050;SDS011;6086;43.546;26.474;2022-09-09T07:30:18;2.23;;;2.00;;
12050;SDS011;6086;43.546;26.474;2022-09-09T07:32:46;1.87;;;1.77;;
12050;SDS011;6086;43.546;26.474;2022-09-09T07:35:14;2.50;;;2.30;;
12050;SDS011;6086;43.546;26.474;2022-09-09T07:37:44;3.13;;;2.23;;
12050;SDS011;6086;43.546;26.474;2022-09-09T07:40:11;2.67;;;2.47;;
12050;SDS011;6086;43.546;26.474;2022-09-09T07:42:40;3.23;;;1.90;;
12050;SDS011;6086;43.546;26.474;2022-09-09T07:45:07;2.73;;;2.23;;
12050;SDS011;6086;43.546;26.474;2022-09-09T07:47:34;2.17;;;2.07;;
12050;SDS011;6086;43.546;26.474;2022-09-09T07:50:01;2.50;;;2.20;;
12050;SDS011;6086;43.546;26.474;2022-09-09T07:52:29;2.23;;;2.13;;
12050;SDS011;6086;43.546;26.474;2022-09-09T07:54:57;3.83;;;2.07;;
12050;SDS011;6086;43.546;26.474;2022-09-09T07:57:25;2.50;;;2.30;;
12050;SDS011;6086;43.546;26.474;2022-09-09T07:59:52;3.13;;;2.47;;
12050;SDS011;6086;43.546;26.474;2022-09-09T08:02:19;3.33;;;2.50;;
12050;SDS011;6086;43.546;26.474;2022-09-09T08:04:46;2.57;;;2.13;;
12050;SDS011;6086;43.546;26.474;2022-09-09T08:07:13;2.07;;;1.97;;
12050;SDS011;6086;43.546;26.474;2022-09-09T08:09:41;2.30;;;2.10;;
12050;SDS011;6086;43.546;26.474;2022-09-09T08:12:10;2.43;;;2.20;;
12050;SDS011;6086;43.546;26.474;2022-09-09T08:14:44;2.60;;;2.40;;
12050;SDS011;6086;43.546;26.474;2022-09-09T08:17:10;3.20;;;2.43;;
12050;SDS011;6086;43.546;26.474;2022-09-09T08:19:37;5.40;;;2.27;;
12050;SDS011;6086;43.546;26.474;2022-09-09T08:22:04;7.33;;;2.50;;
12050;SDS011;6086;43.546;26.474;2022-09-09T08:24:32;2.50;;;2.20;;
12050;SDS011;6086;43.546;26.474;2022-09-09T08:26:59;2.17;;;2.07;;
12050;SDS011;6086;43.546;26.474;2022-09-09T08:29:27;2.73;;;2.17;;
12050;SDS011;6086;43.546;26.474;2022-09-09T08:31:55;4.40;;;2.00;;
12050;SDS011;6086;43.546;26.474;2022-09-09T08:34:23;2.27;;;2.17;;
12050;SDS011;6086;43.546;26.474;2022-09-09T08:36:52;2.30;;;2.10;;
12050;SDS011;6086;43.546;26.474;2022-09-09T08:39:20;2.40;;;2.20;;
12050;SDS011;6086;43.546;26.474;2022-09-09T08:41:57;2.93;;;2.47;;
12050;SDS011;6086;43.546;26.474;2022-09-09T08:44:57;2.33;;;2.13;;
12050;SDS011;6086;43.546;26.474;2022-09-09T08:47:39;2.70;;;2.50;;
12050;SDS011;6086;43.546;26.474;2022-09-09T08:50:17;2.43;;;2.23;;
12050;SDS011;6086;43.546;26.474;2022-09-09T08:52:51;2.30;;;2.20;;
12050;SDS011;6086;43.546;26.474;2022-09-09T08:55:24;4.47;;;2.63;;
12050;SDS011;6086;43.546;26.474;2022-09-09T08:57:57;2.43;;;2.23;;
12050;SDS011;6086;43.546;26.474;2022-09-09T09:00:30;3.13;;;2.23;;
12050;SDS011;6086;43.546;26.474;2022-09-09T09:03:06;2.40;;;2.20;;
12050;SDS011;6086;43.546;26.474;2022-09-09T09:05:44;3.00;;;2.50;;
12050;SDS011;6086;43.546;26.474;2022-09-09T09:08:20;2.53;;;2.33;;
12050;SDS011;6086;43.546;26.474;2022-09-09T09:10:54;2.50;;;2.37;;
12050;SDS011;6086;43.546;26.474;2022-09-09T09:13:26;1.90;;;1.80;;
12050;SDS011;6086;43.546;26.474;2022-09-09T09:16:06;4.80;;;2.27;;
12050;SDS011;6086;43.546;26.474;2022-09-09T09:18:44;3.40;;;2.33;;
12050;SDS011;6086;43.546;26.474;2022-09-09T09:21:12;2.47;;;2.27;;
12050;SDS011;6086;43.546;26.474;2022-09-09T09:23:45;2.30;;;2.10;;
12050;SDS011;6086;43.546;26.474;2022-09-09T09:26:20;3.33;;;2.10;;
12050;SDS011;6086;43.546;26.474;2022-09-09T09:28:49;2.53;;;2.33;;
12050;SDS011;6086;43.546;26.474;2022-09-09T09:31:23;3.60;;;2.47;;
12050;SDS011;6086;43.546;26.474;2022-09-09T09:33:52;5.10;;;2.60;;
12050;SDS011;6086;43.546;26.474;2022-09-09T09:36:51;3.37;;;2.67;;
12050;SDS011;6086;43.546;26.474;2022-09-09T09:39:52;7.20;;;2.70;;
12050;SDS011;6086;43.546;26.474;2022-09-09T09:42:20;2.77;;;2.50;;
12050;SDS011;6086;43.546;26.474;2022-09-09T09:44:47;3.20;;;2.37;;
12050;SDS011;6086;43.546;26.474;2022-09-09T09:47:16;2.33;;;2.17;;
12050;SDS011;6086;43.546;26.474;2022-09-09T09:49:51;2.63;;;2.43;;
12050;SDS011;6086;43.546;26.474;2022-09-09T09:52:20;4.03;;;2.70;;
12050;SDS011;6086;43.546;26.474;2022-09-09T09:57:39;4.23;;;2.67;;
12050;SDS011;6086;43.546;26.474;2022-09-09T10:00:12;2.67;;;2.33;;
12050;SDS011;6086;43.546;26.474;2022-09-09T10:02:44;2.33;;;2.13;;
12050;SDS011;6086;43.546;26.474;2022-09-09T10:05:13;5.53;;;2.47;;
12050;SDS011;6086;43.546;26.474;2022-09-09T10:07:41;2.37;;;2.23;;
12050;SDS011;6086;43.546;26.474;2022-09-09T10:10:12;2.40;;;2.20;;
12050;SDS011;6086;43.546;26.474;2022-09-09T10:12:45;2.63;;;2.40;;
12050;SDS011;6086;43.546;26.474;2022-09-09T10:15:34;2.27;;;2.07;;
12050;SDS011;6086;43.546;26.474;2022-09-09T10:18:13;2.57;;;2.37;;
12050;SDS011;6086;43.546;26.474;2022-09-09T10:21:03;2.27;;;2.00;;
12050;SDS011;6086;43.546;26.474;2022-09-09T10:23:45;3.13;;;2.30;;
12050;SDS011;6086;43.546;26.474;2022-09-09T10:26:32;2.17;;;1.97;;
12050;SDS011;6086;43.546;26.474;2022-09-09T10:29:13;6.57;;;3.13;;
12050;SDS011;6086;43.546;26.474;2022-09-09T10:31:53;2.70;;;2.43;;
12050;SDS011;6086;43.546;26.474;2022-09-09T10:34:44;3.87;;;2.47;;
12050;SDS011;6086;43.546;26.474;2022-09-09T10:37:24;4.07;;;2.47;;
12050;SDS011;6086;43.546;26.474;2022-09-09T10:40:02;3.63;;;2.37;;
12050;SDS011;6086;43.546;26.474;2022-09-09T10:42:42;3.60;;;2.40;;
12050;SDS011;6086;43.546;26.474;2022-09-09T10:45:15;2.90;;;2.60;;
12050;SDS011;6086;43.546;26.474;2022-09-09T10:47:51;3.30;;;2.63;;
12050;SDS011;6086;43.546;26.474;2022-09-09T10:50:39;7.03;;;2.97;;
12050;SDS011;6086;43.546;26.474;2022-09-09T10:53:14;3.23;;;2.50;;
12050;SDS011;6086;43.546;26.474;2022-09-09T10:55:50;3.40;;;2.23;;
12050;SDS011;6086;43.546;26.474;2022-09-09T10:58:21;2.47;;;2.27;;
12050;SDS011;6086;43.546;26.474;2022-09-09T11:00:53;3.83;;;2.47;;
12050;SDS011;6086;43.546;26.474;2022-09-09T11:03:24;3.03;;;2.40;;
12050;SDS011;6086;43.546;26.474;2022-09-09T11:05:59;2.30;;;2.20;;
12050;SDS011;6086;43.546;26.474;2022-09-09T11:08:31;2.30;;;2.20;;
12050;SDS011;6086;43.546;26.474;2022-09-09T11:11:02;6.73;;;2.83;;
12050;SDS011;6086;43.546;26.474;2022-09-09T11:13:34;2.90;;;2.70;;
12050;SDS011;6086;43.546;26.474;2022-09-09T11:16:13;2.50;;;2.30;;
12050;SDS011;6086;43.546;26.474;2022-09-09T11:18:48;3.10;;;2.80;;
12050;SDS011;6086;43.546;26.474;2022-09-09T11:21:18;2.20;;;2.10;;
12050;SDS011;6086;43.546;26.474;2022-09-09T11:23:49;2.97;;;2.33;;
12050;SDS011;6086;43.546;26.474;2022-09-09T11:26:22;2.73;;;2.53;;
12050;SDS011;6086;43.546;26.474;2022-09-09T11:29:00;2.67;;;2.47;;
12050;SDS011;6086;43.546;26.474;2022-09-09T11:31:43;3.00;;;2.70;;
12050;SDS011;6086;43.546;26.474;2022-09-09T11:34:16;2.73;;;2.53;;
12050;SDS011;6086;43.546;26.474;2022-09-09T11:37:02;2.80;;;2.50;;
12050;SDS011;6086;43.546;26.474;2022-09-09T11:39:59;3.13;;;2.40;;
12050;SDS011;6086;43.546;26.474;2022-09-09T11:42:36;2.60;;;2.40;;
12050;SDS011;6086;43.546;26.474;2022-09-09T11:45:09;4.03;;;2.97;;
12050;SDS011;6086;43.546;26.474;2022-09-09T11:47:38;2.53;;;2.20;;
12050;SDS011;6086;43.546;26.474;2022-09-09T11:50:08;2.30;;;2.17;;
12050;SDS011;6086;43.546;26.474;2022-09-09T11:52:39;2.53;;;2.33;;
12050;SDS011;6086;43.546;26.474;2022-09-09T11:55:11;7.20;;;2.90;;
12050;SDS011;6086;43.546;26.474;2022-09-09T11:57:56;2.87;;;2.67;;
12050;SDS011;6086;43.546;26.474;2022-09-09T12:00:30;2.67;;;2.47;;
12050;SDS011;6086;43.546;26.474;2022-09-09T12:03:01;2.73;;;2.53;;
12050;SDS011;6086;43.546;26.474;2022-09-09T12:05:37;3.33;;;3.10;;
12050;SDS011;6086;43.546;26.474;2022-09-09T12:08:36;2.60;;;2.40;;
12050;SDS011;6086;43.546;26.474;2022-09-09T12:11:12;2.90;;;2.70;;
12050;SDS011;6086;43.546;26.474;2022-09-09T12:13:55;8.67;;;3.53;;
12050;SDS011;6086;43.546;26.474;2022-09-09T12:16:39;2.93;;;2.73;;
12050;SDS011;6086;43.546;26.474;2022-09-09T12:19:18;2.87;;;2.50;;
12050;SDS011;6086;43.546;26.474;2022-09-09T12:22:06;5.63;;;2.53;;
12050;SDS011;6086;43.546;26.474;2022-09-09T12:24:46;2.63;;;2.43;;
12050;SDS011;6086;43.546;26.474;2022-09-09T12:27:20;4.90;;;2.40;;
12050;SDS011;6086;43.546;26.474;2022-09-09T12:30:13;2.87;;;2.67;;
12050;SDS011;6086;43.546;26.474;2022-09-09T12:33:10;5.00;;;2.37;;
12050;SDS011;6086;43.546;26.474;2022-09-09T12:35:45;2.80;;;2.60;;
12050;SDS011;6086;43.546;26.474;2022-09-09T12:38:27;2.70;;;2.50;;
12050;SDS011;6086;43.546;26.474;2022-09-09T12:44:15;3.70;;;2.50;;
12050;SDS011;6086;43.546;26.474;2022-09-09T12:46:45;3.37;;;2.53;;
12050;SDS011;6086;43.546;26.474;2022-09-09T12:52:13;5.47;;;2.90;;
12050;SDS011;6086;43.546;26.474;2022-09-09T12:57:43;5.03;;;2.40;;
12050;SDS011;6086;43.546;26.474;2022-09-09T13:00:12;4.20;;;2.80;;
12050;SDS011;6086;43.546;26.474;2022-09-09T13:02:46;2.87;;;2.47;;
12050;SDS011;6086;43.546;26.474;2022-09-09T13:05:17;4.60;;;3.00;;
12050;SDS011;6086;43.546;26.474;2022-09-09T13:08:00;5.20;;;2.70;;
12050;SDS011;6086;43.546;26.474;2022-09-09T13:13:41;4.97;;;2.70;;
12050;SDS011;6086;43.546;26.474;2022-09-09T13:16:18;2.67;;;2.47;;
12050;SDS011;6086;43.546;26.474;2022-09-09T13:18:49;3.93;;;2.30;;
12050;SDS011;6086;43.546;26.474;2022-09-09T13:21:17;3.97;;;2.47;;
12050;SDS011;6086;43.546;26.474;2022-09-09T13:23:50;2.67;;;2.30;;
12050;SDS011;6086;43.546;26.474;2022-09-09T13:26:20;2.43;;;2.23;;
12050;SDS011;6086;43.546;26.474;2022-09-09T13:28:50;7.40;;;2.77;;
12050;SDS011;6086;43.546;26.474;2022-09-09T13:31:21;2.93;;;2.60;;
12050;SDS011;6086;43.546;26.474;2022-09-09T13:33:52;5.33;;;2.37;;
12050;SDS011;6086;43.546;26.474;2022-09-09T13:36:27;4.10;;;2.60;;
12050;SDS011;6086;43.546;26.474;2022-09-09T13:38:57;4.70;;;2.97;;
12050;SDS011;6086;43.546;26.474;2022-09-09T13:41:27;4.47;;;2.53;;
12050;SDS011;6086;43.546;26.474;2022-09-09T13:43:59;3.23;;;2.53;;
12050;SDS011;6086;43.546;26.474;2022-09-09T13:46:31;2.90;;;2.33;;
12050;SDS011;6086;43.546;26.474;2022-09-09T13:49:01;2.57;;;2.37;;
12050;SDS011;6086;43.546;26.474;2022-09-09T13:51:45;2.90;;;2.60;;
12050;SDS011;6086;43.546;26.474;2022-09-09T13:54:18;4.17;;;2.60;;
12050;SDS011;6086;43.546;26.474;2022-09-09T13:56:54;4.00;;;3.30;;
12050;SDS011;6086;43.546;26.474;2022-09-09T13:59:25;2.90;;;2.70;;
12050;SDS011;6086;43.546;26.474;2022-09-09T14:02:01;3.97;;;2.70;;
12050;SDS011;6086;43.546;26.474;2022-09-09T14:04:32;2.97;;;2.43;;
12050;SDS011;6086;43.546;26.474;2022-09-09T14:07:00;4.43;;;2.87;;
12050;SDS011;6086;43.546;26.474;2022-09-09T14:09:31;2.73;;;2.53;;
12050;SDS011;6086;43.546;26.474;2022-09-09T14:12:02;4.97;;;2.80;;
12050;SDS011;6086;43.546;26.474;2022-09-09T14:14:32;4.10;;;3.10;;
12050;SDS011;6086;43.546;26.474;2022-09-09T14:17:09;3.20;;;2.87;;
12050;SDS011;6086;43.546;26.474;2022-09-09T14:19:36;2.40;;;2.20;;
12050;SDS011;6086;43.546;26.474;2022-09-09T14:22:07;5.53;;;2.80;;
12050;SDS011;6086;43.546;26.474;2022-09-09T14:24:36;2.97;;;2.77;;
12050;SDS011;6086;43.546;26.474;2022-09-09T14:27:08;3.83;;;2.63;;
12050;SDS011;6086;43.546;26.474;2022-09-09T14:29:36;3.13;;;2.80;;
12050;SDS011;6086;43.546;26.474;2022-09-09T14:32:04;4.50;;;4.10;;
12050;SDS011;6086;43.546;26.474;2022-09-09T14:34:31;4.27;;;2.90;;
12050;SDS011;6086;43.546;26.474;2022-09-09T14:36:59;5.67;;;2.90;;
12050;SDS011;6086;43.546;26.474;2022-09-09T14:39:26;5.90;;;3.00;;
12050;SDS011;6086;43.546;26.474;2022-09-09T14:41:53;3.63;;;2.93;;
12050;SDS011;6086;43.546;26.474;2022-09-09T14:44:20;3.93;;;2.90;;
12050;SDS011;6086;43.546;26.474;2022-09-09T14:46:51;4.93;;;2.90;;
12050;SDS011;6086;43.546;26.474;2022-09-09T14:49:19;5.20;;;3.10;;
12050;SDS011;6086;43.546;26.474;2022-09-09T14:51:47;5.00;;;3.00;;
12050;SDS011;6086;43.546;26.474;2022-09-09T14:54:14;3.07;;;2.33;;
12050;SDS011;6086;43.546;26.474;2022-09-09T14:56:42;5.40;;;2.67;;
12050;SDS011;6086;43.546;26.474;2022-09-09T14:59:09;4.90;;;2.50;;
12050;SDS011;6086;43.546;26.474;2022-09-09T15:01:38;4.80;;;3.13;;
12050;SDS011;6086;43.546;26.474;2022-09-09T15:04:07;3.67;;;2.70;;
12050;SDS011;6086;43.546;26.474;2022-09-09T15:06:34;3.90;;;2.80;;
12050;SDS011;6086;43.546;26.474;2022-09-09T15:09:04;5.00;;;4.47;;
12050;SDS011;6086;43.546;26.474;2022-09-09T15:11:37;10.87;;;8.67;;
12050;SDS011;6086;43.546;26.474;2022-09-09T15:14:07;5.40;;;4.13;;
12050;SDS011;6086;43.546;26.474;2022-09-09T15:16:35;7.40;;;3.57;;
12050;SDS011;6086;43.546;26.474;2022-09-09T15:19:03;3.43;;;3.13;;
12050;SDS011;6086;43.546;26.474;2022-09-09T15:21:33;5.97;;;3.83;;
12050;SDS011;6086;43.546;26.474;2022-09-09T15:24:01;4.40;;;3.53;;
12050;SDS011;6086;43.546;26.474;2022-09-09T15:26:29;4.40;;;2.90;;
12050;SDS011;6086;43.546;26.474;2022-09-09T15:28:57;5.50;;;3.00;;
12050;SDS011;6086;43.546;26.474;2022-09-09T15:31:25;3.90;;;3.00;;
12050;SDS011;6086;43.546;26.474;2022-09-09T15:33:55;4.43;;;4.00;;
12050;SDS011;6086;43.546;26.474;2022-09-09T15:36:28;4.17;;;3.77;;